Time;durP1;ratioP1;P1;durP2;ratioP2;P2;SDS_P1;SDS_P2;PMS_P1;PMS_P2;Temp;Humidity;BMP_temperature;BMP_pressure;BME280_temperature;BME280_humidity;BME280_pressure;Samples;Min_cycle;Max_cycle;Signal;HPM_P1;HPM_P2
2021/06/16 00:00:13;;;;;;;2.67;2.10;;;;;;;;;;5054220;28;20205;-54
2021/06/16 00:02:40;;;;;;;3.07;1.80;;;;;;;;;;5053328;28;20228;-57
2021/06/16 00:05:07;;;;;;;3.43;1.77;;;;;;;;;;5054203;28;20185;-54
2021/06/16 00:07:33;;;;;;;3.00;1.83;;;;;;;;;;5053161;28;20223;-54
2021/06/16 00:09:59;;;;;;;3.03;1.80;;;;;;;;;;5047285;28;20215;-55
2021/06/16 00:12:26;;;;;;;3.40;1.90;;;;;;;;;;5053873;28;20296;-55
2021/06/16 00:14:53;;;;;;;4.63;2.00;;;;;;;;;;5053671;28;20247;-55
2021/06/16 00:17:19;;;;;;;2.47;2.10;;;;;;;;;;5053597;28;20548;-55
2021/06/16 00:19:45;;;;;;;1.83;1.67;;;;;;;;;;5054581;28;20178;-54
2021/06/16 00:22:11;;;;;;;2.83;1.87;;;;;;;;;;5035362;28;20626;-55
2021/06/16 00:24:37;;;;;;;3.83;2.00;;;;;;;;;;5054160;28;20209;-53
2021/06/16 00:27:03;;;;;;;3.90;1.90;;;;;;;;;;5053453;28;20187;-53
2021/06/16 00:29:29;;;;;;;3.63;1.93;;;;;;;;;;5054124;28;20672;-53
2021/06/16 00:31:55;;;;;;;4.00;1.90;;;;;;;;;;5052944;28;20180;-55
2021/06/16 00:34:21;;;;;;;3.40;2.00;;;;;;;;;;5051521;28;20214;-54
2021/06/16 00:36:48;;;;;;;2.80;1.90;;;;;;;;;;5053440;28;20176;-54
2021/06/16 00:39:14;;;;;;;2.40;1.67;;;;;;;;;;5052651;28;20630;-53
2021/06/16 00:41:41;;;;;;;2.97;2.10;;;;;;;;;;5054120;28;20564;-54
2021/06/16 00:44:07;;;;;;;2.10;1.80;;;;;;;;;;5053288;28;20188;-53
2021/06/16 00:46:34;;;;;;;2.70;1.80;;;;;;;;;;5053272;28;20175;-55
2021/06/16 00:49:00;;;;;;;2.17;1.77;;;;;;;;;;5052546;28;20183;-55
2021/06/16 00:51:26;;;;;;;6.90;2.20;;;;;;;;;;5035436;28;20608;-53
2021/06/16 00:53:52;;;;;;;4.33;2.20;;;;;;;;;;5053507;28;20191;-54
2021/06/16 00:56:18;;;;;;;2.30;1.63;;;;;;;;;;5052894;28;20171;-54
2021/06/16 00:58:44;;;;;;;3.40;1.83;;;;;;;;;;5052040;28;20654;-54
2021/06/16 01:01:20;;;;;;;2.10;1.60;;;;;;;;;;5052872;28;20190;-53
2021/06/16 01:03:54;;;;;;;2.73;1.93;;;;;;;;;;5035088;28;20182;-54
2021/06/16 01:06:22;;;;;;;5.50;2.00;;;;;;;;;;5056172;28;20973;-55
2021/06/16 01:09:07;;;;;;;2.70;2.00;;;;;;;;;;5054621;28;20193;-53
2021/06/16 01:11:36;;;;;;;3.73;1.90;;;;;;;;;;5053545;28;20189;-54
2021/06/16 01:14:08;;;;;;;4.27;2.07;;;;;;;;;;5052734;28;20676;-53
2021/06/16 01:16:39;;;;;;;2.73;2.13;;;;;;;;;;5051356;28;20219;-53
2021/06/16 01:19:14;;;;;;;3.13;1.97;;;;;;;;;;5052002;28;20212;-56
2021/06/16 01:21:41;;;;;;;3.83;1.83;;;;;;;;;;5052656;28;20171;-56
2021/06/16 01:24:15;;;;;;;3.60;1.87;;;;;;;;;;5039313;28;20209;-53
2021/06/16 01:26:44;;;;;;;5.17;2.40;;;;;;;;;;5052546;28;20175;-54
2021/06/16 01:29:20;;;;;;;3.87;1.80;;;;;;;;;;5052467;28;20190;-53
2021/06/16 01:31:47;;;;;;;4.50;1.80;;;;;;;;;;5052552;28;20264;-54
2021/06/16 01:34:16;;;;;;;3.90;2.17;;;;;;;;;;5050778;28;20206;-53
2021/06/16 01:36:44;;;;;;;2.73;2.10;;;;;;;;;;5048096;28;20173;-55
2021/06/16 01:39:10;;;;;;;4.27;2.10;;;;;;;;;;5052698;28;20170;-53
2021/06/16 01:41:37;;;;;;;6.33;1.80;;;;;;;;;;5052463;28;20173;-53
2021/06/16 01:44:04;;;;;;;1.90;1.70;;;;;;;;;;5051739;28;20183;-53
2021/06/16 01:46:30;;;;;;;4.30;2.10;;;;;;;;;;5052122;28;20185;-53
2021/06/16 01:48:57;;;;;;;2.90;2.23;;;;;;;;;;5049913;28;20223;-54
2021/06/16 01:51:24;;;;;;;3.10;1.90;;;;;;;;;;5051344;28;20185;-53
2021/06/16 01:53:51;;;;;;;3.87;2.00;;;;;;;;;;5051619;28;20198;-54
2021/06/16 01:56:18;;;;;;;3.07;2.27;;;;;;;;;;5051705;28;20178;-53
2021/06/16 01:58:45;;;;;;;4.37;2.47;;;;;;;;;;5033451;28;20189;-53
2021/06/16 02:01:12;;;;;;;2.47;1.43;;;;;;;;;;5051620;28;20180;-55
2021/06/16 02:03:38;;;;;;;2.10;1.90;;;;;;;;;;5033295;28;20187;-54
2021/06/16 02:06:04;;;;;;;3.20;1.87;;;;;;;;;;5052806;28;20195;-54
2021/06/16 02:08:31;;;;;;;3.03;2.27;;;;;;;;;;5051321;28;20186;-53
2021/06/16 02:10:59;;;;;;;2.93;2.07;;;;;;;;;;5052236;28;20185;-54
2021/06/16 02:13:35;;;;;;;3.23;1.90;;;;;;;;;;5051670;28;20687;-54
2021/06/16 02:16:08;;;;;;;2.30;1.90;;;;;;;;;;5052408;28;20552;-53
2021/06/16 02:18:37;;;;;;;2.10;1.57;;;;;;;;;;5052962;28;20184;-54
2021/06/16 02:21:04;;;;;;;3.87;2.00;;;;;;;;;;5045798;28;20668;-55
2021/06/16 02:23:30;;;;;;;4.13;2.47;;;;;;;;;;5054644;28;20184;-55
2021/06/16 02:25:57;;;;;;;3.43;2.00;;;;;;;;;;5053488;28;20620;-53
2021/06/16 02:28:23;;;;;;;3.33;1.70;;;;;;;;;;5051819;28;20264;-54
2021/06/16 02:30:49;;;;;;;2.83;2.20;;;;;;;;;;5052901;28;20184;-54
2021/06/16 02:33:15;;;;;;;3.67;2.30;;;;;;;;;;5052574;28;20184;-53
2021/06/16 02:35:41;;;;;;;2.60;1.80;;;;;;;;;;5052078;28;20566;-54
2021/06/16 02:38:10;;;;;;;2.60;1.83;;;;;;;;;;5040019;28;20577;-54
2021/06/16 02:40:37;;;;;;;6.50;2.40;;;;;;;;;;5051978;28;20182;-54
2021/06/16 02:43:04;;;;;;;2.63;1.70;;;;;;;;;;5052613;28;20183;-54
2021/06/16 02:45:30;;;;;;;4.33;1.70;;;;;;;;;;5053140;28;20643;-54
2021/06/16 02:47:58;;;;;;;3.17;2.20;;;;;;;;;;5054149;28;20273;-54
2021/06/16 02:50:26;;;;;;;3.67;2.03;;;;;;;;;;5055996;28;20173;-54
2021/06/16 02:52:53;;;;;;;2.83;1.97;;;;;;;;;;5055604;28;20186;-55
2021/06/16 02:55:19;;;;;;;2.40;1.90;;;;;;;;;;5056540;28;20667;-54
2021/06/16 02:57:46;;;;;;;2.63;2.00;;;;;;;;;;5038419;28;20205;-54
2021/06/16 03:00:13;;;;;;;2.60;2.40;;;;;;;;;;5055953;28;20176;-53
2021/06/16 03:02:42;;;;;;;2.20;1.80;;;;;;;;;;5051970;28;20241;-54
2021/06/16 03:05:09;;;;;;;2.90;2.00;;;;;;;;;;5056096;28;20189;-53
2021/06/16 03:07:36;;;;;;;2.33;1.77;;;;;;;;;;5056111;28;20184;-53
2021/06/16 03:10:03;;;;;;;2.87;2.00;;;;;;;;;;5056981;28;20284;-53
2021/06/16 03:12:29;;;;;;;3.97;2.37;;;;;;;;;;5056567;28;20717;-54
2021/06/16 03:14:56;;;;;;;4.57;2.20;;;;;;;;;;5055940;28;20212;-53
2021/06/16 03:17:23;;;;;;;3.20;2.07;;;;;;;;;;5054887;28;20182;-55
2021/06/16 03:19:49;;;;;;;2.17;1.97;;;;;;;;;;5055728;28;20216;-54
2021/06/16 03:22:15;;;;;;;2.70;2.00;;;;;;;;;;5055648;28;20182;-54
2021/06/16 03:24:43;;;;;;;3.37;1.80;;;;;;;;;;5056284;28;20181;-54
2021/06/16 03:27:09;;;;;;;2.90;1.87;;;;;;;;;;5055746;28;20184;-54
2021/06/16 03:29:35;;;;;;;3.83;2.27;;;;;;;;;;5055540;28;20192;-53
2021/06/16 03:32:03;;;;;;;3.47;2.17;;;;;;;;;;5054311;28;20208;-54
2021/06/16 03:34:30;;;;;;;2.50;1.97;;;;;;;;;;5054073;28;20212;-53
2021/06/16 03:36:58;;;;;;;3.10;2.17;;;;;;;;;;5054535;28;20178;-56
2021/06/16 03:39:24;;;;;;;3.53;2.03;;;;;;;;;;5053778;28;20196;-54
2021/06/16 03:41:50;;;;;;;5.67;2.93;;;;;;;;;;5054608;28;20481;-54
2021/06/16 03:44:17;;;;;;;3.30;2.27;;;;;;;;;;5054442;28;20180;-54
2021/06/16 03:46:43;;;;;;;3.93;2.00;;;;;;;;;;5055327;28;20230;-54
2021/06/16 03:49:11;;;;;;;2.87;2.33;;;;;;;;;;5041001;28;20212;-54
2021/06/16 03:51:40;;;;;;;3.60;2.20;;;;;;;;;;5053015;28;20628;-53
2021/06/16 03:54:11;;;;;;;2.73;1.90;;;;;;;;;;5053964;28;20555;-53
2021/06/16 03:56:38;;;;;;;4.43;2.23;;;;;;;;;;5053166;28;20189;-53
2021/06/16 03:59:05;;;;;;;3.20;2.33;;;;;;;;;;5052606;28;20209;-54
2021/06/16 04:01:31;;;;;;;3.23;2.10;;;;;;;;;;5054438;28;20197;-53
2021/06/16 04:03:57;;;;;;;2.63;2.10;;;;;;;;;;5052783;28;20212;-53
2021/06/16 04:06:24;;;;;;;1.97;1.87;;;;;;;;;;5052623;28;20199;-55
2021/06/16 04:08:50;;;;;;;2.90;2.10;;;;;;;;;;5053955;28;20181;-56
2021/06/16 04:11:16;;;;;;;2.40;2.03;;;;;;;;;;5053773;28;20216;-53
2021/06/16 04:13:43;;;;;;;3.40;2.20;;;;;;;;;;5053228;28;20244;-54
2021/06/16 04:16:10;;;;;;;3.57;2.60;;;;;;;;;;5053213;28;20228;-56
2021/06/16 04:18:39;;;;;;;3.70;2.53;;;;;;;;;;5040591;28;20184;-53
2021/06/16 04:21:05;;;;;;;3.30;2.10;;;;;;;;;;5053309;28;20170;-53
2021/06/16 04:23:31;;;;;;;3.57;2.00;;;;;;;;;;5052289;28;20185;-53
2021/06/16 04:25:58;;;;;;;2.53;2.17;;;;;;;;;;5052792;28;20421;-53
2021/06/16 04:28:24;;;;;;;2.53;2.30;;;;;;;;;;5034766;28;20185;-55
2021/06/16 04:30:50;;;;;;;3.53;2.40;;;;;;;;;;5053676;28;20248;-54
2021/06/16 04:33:16;;;;;;;4.37;2.07;;;;;;;;;;5052635;28;20245;-54
2021/06/16 04:35:42;;;;;;;2.33;2.10;;;;;;;;;;5054465;28;20205;-53
2021/06/16 04:38:08;;;;;;;3.70;2.60;;;;;;;;;;5055790;28;20183;-53
2021/06/16 04:40:34;;;;;;;2.63;2.10;;;;;;;;;;5054250;28;20205;-56
2021/06/16 04:43:00;;;;;;;4.27;2.67;;;;;;;;;;5051865;28;20173;-55
2021/06/16 04:45:26;;;;;;;3.47;2.30;;;;;;;;;;5035049;28;20723;-54
2021/06/16 04:47:52;;;;;;;2.83;1.97;;;;;;;;;;5051313;28;20179;-54
2021/06/16 04:50:18;;;;;;;4.97;2.40;;;;;;;;;;5054439;28;20188;-54
2021/06/16 04:52:44;;;;;;;2.80;2.50;;;;;;;;;;5052634;28;20178;-54
2021/06/16 04:55:12;;;;;;;2.57;2.20;;;;;;;;;;5049678;28;20777;-55
2021/06/16 04:57:38;;;;;;;4.97;2.13;;;;;;;;;;5054678;28;20177;-54
2021/06/16 05:00:05;;;;;;;2.80;2.30;;;;;;;;;;5056885;28;20184;-54
2021/06/16 05:02:31;;;;;;;3.93;2.63;;;;;;;;;;5055281;28;20224;-54
2021/06/16 05:04:57;;;;;;;3.43;2.10;;;;;;;;;;5055008;28;20628;-54
2021/06/16 05:07:23;;;;;;;3.77;2.30;;;;;;;;;;5053698;28;20173;-54
2021/06/16 05:09:49;;;;;;;3.10;2.50;;;;;;;;;;5036019;28;20181;-55
2021/06/16 05:12:15;;;;;;;2.63;1.90;;;;;;;;;;5036051;28;20533;-54
2021/06/16 05:14:41;;;;;;;4.33;2.20;;;;;;;;;;5036163;28;20233;-54
2021/06/16 05:17:07;;;;;;;2.97;2.13;;;;;;;;;;5052527;28;20623;-57
2021/06/16 05:19:34;;;;;;;3.00;2.13;;;;;;;;;;5053382;28;20275;-53
2021/06/16 05:22:28;;;;;;;2.90;2.33;;;;;;;;;;5035022;28;20191;-54
2021/06/16 05:24:54;;;;;;;3.30;2.43;;;;;;;;;;5050748;28;20548;-55
2021/06/16 05:27:20;;;;;;;4.77;2.30;;;;;;;;;;5052014;28;20643;-53
2021/06/16 05:29:46;;;;;;;4.00;2.60;;;;;;;;;;5053203;28;20228;-53
2021/06/16 05:32:13;;;;;;;4.27;2.57;;;;;;;;;;5051875;28;20185;-53
2021/06/16 05:34:39;;;;;;;4.03;2.40;;;;;;;;;;5052892;28;20347;-53
2021/06/16 05:37:08;;;;;;;3.90;2.30;;;;;;;;;;5051544;28;20177;-57
2021/06/16 05:39:34;;;;;;;3.07;2.03;;;;;;;;;;5053026;28;20173;-54
2021/06/16 05:42:01;;;;;;;4.30;3.00;;;;;;;;;;5050303;28;20177;-54
2021/06/16 05:44:27;;;;;;;5.03;2.97;;;;;;;;;;5035545;28;20244;-53
2021/06/16 05:46:53;;;;;;;4.07;3.33;;;;;;;;;;5050963;28;20181;-54
2021/06/16 05:49:19;;;;;;;4.90;2.50;;;;;;;;;;5050902;28;20181;-53
2021/06/16 05:51:45;;;;;;;5.47;2.73;;;;;;;;;;5052246;28;20258;-55
2021/06/16 05:54:11;;;;;;;7.27;2.73;;;;;;;;;;5052164;28;20606;-54
2021/06/16 05:56:38;;;;;;;5.60;2.87;;;;;;;;;;5050935;28;20544;-53
2021/06/16 05:59:04;;;;;;;4.50;2.60;;;;;;;;;;5051905;28;20246;-54
2021/06/16 06:01:31;;;;;;;3.33;2.40;;;;;;;;;;5051340;28;20205;-55
2021/06/16 06:03:57;;;;;;;6.90;2.80;;;;;;;;;;5050255;28;20636;-53
2021/06/16 06:06:23;;;;;;;5.73;3.33;;;;;;;;;;5049891;28;20234;-52
2021/06/16 06:08:49;;;;;;;4.77;2.17;;;;;;;;;;5050542;28;20177;-53
2021/06/16 06:11:15;;;;;;;3.43;2.50;;;;;;;;;;5050321;28;20177;-53
2021/06/16 06:13:41;;;;;;;4.20;3.17;;;;;;;;;;5049751;28;20211;-53
2021/06/16 06:16:07;;;;;;;4.90;2.83;;;;;;;;;;5049819;28;20224;-53
2021/06/16 06:18:34;;;;;;;4.90;2.87;;;;;;;;;;5049584;28;20537;-53
2021/06/16 06:21:00;;;;;;;3.67;3.20;;;;;;;;;;5051389;28;20169;-52
2021/06/16 06:23:26;;;;;;;5.43;2.60;;;;;;;;;;5054603;28;20177;-56
2021/06/16 06:25:52;;;;;;;4.13;2.90;;;;;;;;;;5055931;28;20184;-54
2021/06/16 06:28:18;;;;;;;4.40;2.90;;;;;;;;;;5054077;28;20196;-54
2021/06/16 06:30:44;;;;;;;4.47;3.10;;;;;;;;;;5052637;28;20169;-53
2021/06/16 06:33:10;;;;;;;6.47;3.10;;;;;;;;;;5034228;28;20180;-53
2021/06/16 06:35:36;;;;;;;5.33;3.03;;;;;;;;;;5050861;28;20185;-55
2021/06/16 06:38:03;;;;;;;3.30;3.00;;;;;;;;;;5054231;28;20255;-54
2021/06/16 06:40:29;;;;;;;5.50;2.83;;;;;;;;;;5050083;28;20232;-53
2021/06/16 06:42:55;;;;;;;5.17;3.17;;;;;;;;;;5051590;28;20494;-54
2021/06/16 06:45:21;;;;;;;6.90;3.60;;;;;;;;;;5054998;28;20256;-57
2021/06/16 06:47:47;;;;;;;3.27;2.70;;;;;;;;;;5053546;28;20185;-54
2021/06/16 06:50:14;;;;;;;3.93;3.07;;;;;;;;;;5055327;28;20165;-53
2021/06/16 06:52:41;;;;;;;5.43;3.07;;;;;;;;;;5054133;28;20193;-54
2021/06/16 06:55:07;;;;;;;4.23;2.87;;;;;;;;;;5055114;28;20259;-54
2021/06/16 06:57:33;;;;;;;7.13;3.20;;;;;;;;;;5053731;28;20184;-53
2021/06/16 06:59:59;;;;;;;4.23;2.73;;;;;;;;;;5055283;28;20203;-53
2021/06/16 07:02:25;;;;;;;5.07;3.03;;;;;;;;;;5036604;28;20653;-53
2021/06/16 07:04:51;;;;;;;4.43;2.90;;;;;;;;;;5056624;28;20295;-57
2021/06/16 07:07:18;;;;;;;5.00;3.10;;;;;;;;;;5054471;28;20243;-54
2021/06/16 07:09:46;;;;;;;6.13;3.20;;;;;;;;;;5055706;28;20184;-54
2021/06/16 07:12:13;;;;;;;3.20;2.90;;;;;;;;;;5054201;28;20347;-55
2021/06/16 07:14:39;;;;;;;6.70;3.07;;;;;;;;;;5054214;28;20376;-54
2021/06/16 07:17:06;;;;;;;4.30;2.73;;;;;;;;;;5054571;28;20198;-58
2021/06/16 07:19:32;;;;;;;5.10;2.83;;;;;;;;;;5055216;28;20175;-54
2021/06/16 07:21:58;;;;;;;5.93;3.00;;;;;;;;;;5053618;28;20463;-54
2021/06/16 07:24:24;;;;;;;6.13;2.97;;;;;;;;;;5054899;28;20251;-55
2021/06/16 07:26:51;;;;;;;3.20;2.87;;;;;;;;;;5055140;28;20646;-54
2021/06/16 07:29:17;;;;;;;3.10;2.80;;;;;;;;;;5055084;28;20294;-54
2021/06/16 07:31:43;;;;;;;4.90;3.20;;;;;;;;;;5035521;28;20557;-54
2021/06/16 07:34:09;;;;;;;6.30;3.57;;;;;;;;;;5035251;28;20239;-54
2021/06/16 07:36:35;;;;;;;3.27;2.77;;;;;;;;;;5054077;28;20268;-54
2021/06/16 07:39:02;;;;;;;4.67;3.50;;;;;;;;;;5053461;28;20561;-54
2021/06/16 07:41:28;;;;;;;7.50;3.93;;;;;;;;;;5052944;28;20171;-54
2021/06/16 07:43:54;;;;;;;4.07;3.40;;;;;;;;;;5051625;28;20239;-55
2021/06/16 07:46:20;;;;;;;4.23;3.37;;;;;;;;;;5052388;28;20175;-54
2021/06/16 07:48:46;;;;;;;6.77;4.17;;;;;;;;;;5050743;28;20186;-54
2021/06/16 07:51:12;;;;;;;4.43;3.60;;;;;;;;;;5050761;28;20182;-55
2021/06/16 07:53:39;;;;;;;5.43;3.23;;;;;;;;;;5051700;28;20233;-54
2021/06/16 07:56:05;;;;;;;3.57;3.27;;;;;;;;;;5053011;28;20173;-54
2021/06/16 07:58:32;;;;;;;4.77;3.57;;;;;;;;;;5052484;28;20223;-54
2021/06/16 08:00:58;;;;;;;3.23;2.93;;;;;;;;;;5051957;28;20178;-54
2021/06/16 08:03:24;;;;;;;8.90;3.87;;;;;;;;;;5050413;28;20200;-55
2021/06/16 08:05:51;;;;;;;5.40;3.20;;;;;;;;;;5052318;28;20194;-54
2021/06/16 08:08:18;;;;;;;5.53;3.33;;;;;;;;;;5051031;28;20190;-55
2021/06/16 08:10:44;;;;;;;5.10;3.37;;;;;;;;;;5053174;28;20173;-54
2021/06/16 08:13:10;;;;;;;4.47;3.30;;;;;;;;;;5052517;28;20193;-54
2021/06/16 08:15:37;;;;;;;4.90;3.60;;;;;;;;;;5040805;28;20230;-54
2021/06/16 08:18:03;;;;;;;3.70;3.20;;;;;;;;;;5014765;28;20195;-57
2021/06/16 08:20:29;;;;;;;4.47;3.53;;;;;;;;;;5032112;28;20187;-54
2021/06/16 08:22:55;;;;;;;5.03;3.50;;;;;;;;;;5032185;28;20630;-55
2021/06/16 08:25:22;;;;;;;3.57;3.27;;;;;;;;;;5033294;28;20220;-53
2021/06/16 08:27:48;;;;;;;12.37;3.60;;;;;;;;;;5033440;28;20263;-55
2021/06/16 08:30:14;;;;;;;4.07;3.67;;;;;;;;;;5028969;28;20182;-54
2021/06/16 08:32:41;;;;;;;4.53;3.50;;;;;;;;;;5025321;28;20193;-55
2021/06/16 08:35:07;;;;;;;4.17;3.43;;;;;;;;;;4998209;28;20211;-54
2021/06/16 08:37:34;;;;;;;3.70;3.00;;;;;;;;;;5024037;28;20689;-54
2021/06/16 08:40:00;;;;;;;5.47;3.90;;;;;;;;;;5032792;28;20202;-54
2021/06/16 08:42:26;;;;;;;5.03;3.53;;;;;;;;;;5031511;28;20621;-54
2021/06/16 08:44:54;;;;;;;3.77;3.40;;;;;;;;;;5031591;28;20187;-54
2021/06/16 08:47:21;;;;;;;6.33;3.63;;;;;;;;;;5030562;28;20184;-54
2021/06/16 08:49:47;;;;;;;8.37;3.67;;;;;;;;;;5013804;28;20226;-56
2021/06/16 08:52:13;;;;;;;5.40;3.77;;;;;;;;;;5007353;28;20193;-55
2021/06/16 08:54:39;;;;;;;4.03;3.53;;;;;;;;;;5029739;28;20211;-56
2021/06/16 08:57:06;;;;;;;4.00;3.23;;;;;;;;;;5032382;28;20500;-55
2021/06/16 08:59:32;;;;;;;4.43;3.57;;;;;;;;;;5033439;28;20267;-54
2021/06/16 09:01:58;;;;;;;3.87;3.50;;;;;;;;;;5031532;28;20196;-54
2021/06/16 09:04:43;;;;;;;3.87;3.53;;;;;;;;;;5035539;28;20187;-56
2021/06/16 09:07:13;;;;;;;5.43;3.70;;;;;;;;;;5038100;28;20193;-55
2021/06/16 09:09:39;;;;;;;5.50;3.60;;;;;;;;;;5030551;28;20185;-58
2021/06/16 09:12:07;;;;;;;4.10;3.53;;;;;;;;;;5026510;28;20186;-56
2021/06/16 09:14:33;;;;;;;4.33;3.40;;;;;;;;;;5034253;28;20229;-55
2021/06/16 09:17:03;;;;;;;7.23;3.40;;;;;;;;;;5052645;28;20231;-57
2021/06/16 09:19:36;;;;;;;4.97;3.80;;;;;;;;;;5043682;28;20211;-57
2021/06/16 09:22:11;;;;;;;4.20;3.27;;;;;;;;;;5056036;28;20260;-55
2021/06/16 09:24:44;;;;;;;4.87;4.00;;;;;;;;;;5064517;28;20173;-55
2021/06/16 09:27:11;;;;;;;4.17;3.77;;;;;;;;;;5054396;28;20217;-55
2021/06/16 09:29:37;;;;;;;4.10;3.77;;;;;;;;;;5059632;28;20181;-55
2021/06/16 09:32:04;;;;;;;5.63;3.83;;;;;;;;;;5060920;28;20264;-55
2021/06/16 09:34:30;;;;;;;4.83;4.20;;;;;;;;;;5064027;28;20215;-56
2021/06/16 09:36:58;;;;;;;3.83;3.53;;;;;;;;;;5052081;28;20207;-55
2021/06/16 09:39:26;;;;;;;4.57;4.17;;;;;;;;;;5052566;28;20180;-55
2021/06/16 09:41:56;;;;;;;4.93;4.18;;;;;;;;;;5033290;28;20424;-55
2021/06/16 09:44:41;;;;;;;5.03;3.60;;;;;;;;;;5052746;28;20181;-55
2021/06/16 09:47:25;;;;;;;4.27;3.70;;;;;;;;;;5044007;28;20228;-58
2021/06/16 09:49:53;;;;;;;4.30;3.83;;;;;;;;;;5039447;28;20173;-56
2021/06/16 09:52:26;;;;;;;6.77;4.50;;;;;;;;;;5051689;28;20181;-58
2021/06/16 09:54:52;;;;;;;5.03;4.20;;;;;;;;;;5051324;28;20201;-56
2021/06/16 09:57:18;;;;;;;4.20;3.67;;;;;;;;;;5051218;28;20555;-56
2021/06/16 09:59:46;;;;;;;4.53;4.13;;;;;;;;;;5045593;28;20178;-55
2021/06/16 10:02:19;;;;;;;6.83;4.37;;;;;;;;;;5050821;28;20189;-55
2021/06/16 10:04:45;;;;;;;4.23;3.83;;;;;;;;;;5051891;28;20182;-55
2021/06/16 10:07:13;;;;;;;4.07;3.77;;;;;;;;;;5051393;28;20206;-55
2021/06/16 10:09:39;;;;;;;5.20;4.20;;;;;;;;;;5051527;28;20189;-55
2021/06/16 10:12:06;;;;;;;5.27;4.40;;;;;;;;;;5050822;28;20181;-56
2021/06/16 10:14:32;;;;;;;4.30;3.90;;;;;;;;;;5051684;28;20254;-55
2021/06/16 10:16:58;;;;;;;5.03;4.20;;;;;;;;;;5051945;28;20238;-56
2021/06/16 10:19:25;;;;;;;5.60;4.67;;;;;;;;;;5051377;28;20176;-54
2021/06/16 10:21:51;;;;;;;5.53;4.97;;;;;;;;;;5050486;28;20181;-55
2021/06/16 10:24:17;;;;;;;4.70;4.23;;;;;;;;;;5050362;28;20243;-55
2021/06/16 10:26:43;;;;;;;6.63;4.83;;;;;;;;;;5048833;28;20181;-54
2021/06/16 10:29:11;;;;;;;6.80;4.10;;;;;;;;;;5050826;28;20205;-55
2021/06/16 10:31:39;;;;;;;5.37;4.80;;;;;;;;;;5050834;28;20634;-55
2021/06/16 10:34:05;;;;;;;5.07;4.57;;;;;;;;;;5050798;28;20296;-56
2021/06/16 10:36:32;;;;;;;7.07;4.93;;;;;;;;;;5049645;28;20580;-55
2021/06/16 10:39:01;;;;;;;6.67;4.73;;;;;;;;;;5049994;28;20585;-55
2021/06/16 10:41:39;;;;;;;6.80;4.70;;;;;;;;;;5050195;28;20630;-56
2021/06/16 10:44:14;;;;;;;6.23;4.90;;;;;;;;;;5046412;28;20189;-54
2021/06/16 10:47:06;;;;;;;5.30;4.80;;;;;;;;;;5051003;28;20190;-54
2021/06/16 10:49:50;;;;;;;7.20;4.83;;;;;;;;;;5036628;28;20195;-54
2021/06/16 10:52:17;;;;;;;5.37;4.53;;;;;;;;;;5039949;28;20174;-55
2021/06/16 10:55:02;;;;;;;5.23;4.83;;;;;;;;;;5051212;28;20205;-55
2021/06/16 10:57:28;;;;;;;5.47;5.00;;;;;;;;;;5050752;28;20176;-55
2021/06/16 10:59:54;;;;;;;4.80;4.40;;;;;;;;;;5050320;28;20174;-56
2021/06/16 11:02:23;;;;;;;7.90;5.33;;;;;;;;;;5049630;28;20582;-56
2021/06/16 11:04:49;;;;;;;5.40;4.90;;;;;;;;;;5050995;28;20192;-55
2021/06/16 11:07:31;;;;;;;5.40;4.90;;;;;;;;;;5050348;28;20187;-55
2021/06/16 11:09:58;;;;;;;5.33;4.83;;;;;;;;;;5054920;28;20192;-56
2021/06/16 11:12:28;;;;;;;7.40;5.57;;;;;;;;;;5052243;28;20537;-56
2021/06/16 11:14:54;;;;;;;6.10;5.50;;;;;;;;;;5039303;28;20620;-55
2021/06/16 11:17:23;;;;;;;5.37;4.87;;;;;;;;;;5051492;28;20171;-55
2021/06/16 11:19:56;;;;;;;6.33;5.73;;;;;;;;;;5053257;28;20637;-56
2021/06/16 11:22:25;;;;;;;6.70;5.50;;;;;;;;;;5035037;28;20265;-56
2021/06/16 11:25:10;;;;;;;6.73;6.17;;;;;;;;;;5052653;28;20178;-56
2021/06/16 11:30:32;;;;;;;6.53;5.63;;;;;;;;;;5053896;28;20234;-56
2021/06/16 11:33:14;;;;;;;5.90;5.37;;;;;;;;;;5051330;28;20274;-55
2021/06/16 11:35:44;;;;;;;6.40;5.90;;;;;;;;;;5035025;28;20250;-55
2021/06/16 11:38:11;;;;;;;6.10;5.60;;;;;;;;;;5052206;28;20190;-55
2021/06/16 11:40:38;;;;;;;6.17;5.67;;;;;;;;;;5053333;28;20234;-56
2021/06/16 11:43:04;;;;;;;6.40;5.60;;;;;;;;;;5051882;28;20184;-55
2021/06/16 11:45:31;;;;;;;6.07;5.57;;;;;;;;;;5053527;28;20177;-55
2021/06/16 11:47:59;;;;;;;5.50;5.00;;;;;;;;;;5050968;28;20191;-56
2021/06/16 11:50:29;;;;;;;6.03;5.53;;;;;;;;;;5053372;28;20184;-56
2021/06/16 11:52:59;;;;;;;6.13;5.53;;;;;;;;;;5051406;28;20538;-56
2021/06/16 11:55:45;;;;;;;6.07;5.43;;;;;;;;;;5053925;28;20205;-55
2021/06/16 11:58:21;;;;;;;5.53;5.13;;;;;;;;;;5051995;28;20201;-57
2021/06/16 12:00:48;;;;;;;6.18;5.57;;;;;;;;;;5043431;28;20177;-56
2021/06/16 12:03:15;;;;;;;5.70;5.20;;;;;;;;;;5033145;28;20243;-55
2021/06/16 12:05:41;;;;;;;6.15;5.40;;;;;;;;;;5052436;28;20192;-56
2021/06/16 12:08:07;;;;;;;5.38;4.97;;;;;;;;;;5052519;28;20243;-56
2021/06/16 12:10:33;;;;;;;5.43;5.00;;;;;;;;;;5052864;28;20189;-58
2021/06/16 12:13:02;;;;;;;5.20;4.82;;;;;;;;;;5051576;28;20300;-56
2021/06/16 12:15:30;;;;;;;6.22;5.72;;;;;;;;;;5052191;28;20280;-56
2021/06/16 12:18:00;;;;;;;5.90;5.40;;;;;;;;;;5052256;28;20651;-57
2021/06/16 12:20:28;;;;;;;7.00;5.80;;;;;;;;;;5052451;28;20215;-55
2021/06/16 12:22:54;;;;;;;6.07;5.50;;;;;;;;;;5050736;28;20185;-57
2021/06/16 12:25:23;;;;;;;9.13;5.47;;;;;;;;;;5049717;28;20674;-56
2021/06/16 12:27:49;;;;;;;5.97;5.37;;;;;;;;;;5050770;28;20533;-57
2021/06/16 12:30:19;;;;;;;6.00;5.40;;;;;;;;;;5051953;28;20212;-56
2021/06/16 12:33:11;;;;;;;6.10;5.50;;;;;;;;;;5051628;28;20174;-57
2021/06/16 12:35:42;;;;;;;6.50;5.53;;;;;;;;;;5051734;28;20586;-56
2021/06/16 12:38:08;;;;;;;6.03;5.47;;;;;;;;;;5033630;28;20177;-58
2021/06/16 12:40:38;;;;;;;8.23;5.87;;;;;;;;;;5052165;28;20209;-56
2021/06/16 12:43:05;;;;;;;6.03;5.53;;;;;;;;;;5052162;28;20181;-55
2021/06/16 12:45:33;;;;;;;11.23;5.73;;;;;;;;;;5052662;28;20185;-55
2021/06/16 12:48:00;;;;;;;7.07;5.18;;;;;;;;;;5049099;28;20636;-57
2021/06/16 12:50:27;;;;;;;5.77;5.17;;;;;;;;;;5052789;28;20533;-56
2021/06/16 12:52:53;;;;;;;6.73;5.20;;;;;;;;;;5050703;28;20181;-57
2021/06/16 12:55:22;;;;;;;6.17;5.67;;;;;;;;;;5052546;28;20239;-56
2021/06/16 12:57:51;;;;;;;7.00;5.67;;;;;;;;;;5051802;28;20173;-57
2021/06/16 13:00:19;;;;;;;10.00;5.60;;;;;;;;;;5052295;28;20170;-56
2021/06/16 13:02:45;;;;;;;9.20;5.53;;;;;;;;;;5050739;28;20193;-56
2021/06/16 13:05:13;;;;;;;6.67;6.10;;;;;;;;;;5051712;28;20596;-56
2021/06/16 13:07:49;;;;;;;6.37;5.30;;;;;;;;;;5051920;28;20185;-58
2021/06/16 13:10:15;;;;;;;7.97;6.23;;;;;;;;;;5040042;28;20177;-57
2021/06/16 13:13:01;;;;;;;5.88;4.90;;;;;;;;;;5052385;28;20269;-58
2021/06/16 13:15:41;;;;;;;5.97;5.00;;;;;;;;;;5020599;28;20739;-59
2021/06/16 13:18:08;;;;;;;6.10;5.50;;;;;;;;;;5051296;28;20236;-55
2021/06/16 13:20:35;;;;;;;8.48;5.43;;;;;;;;;;5051671;28;20177;-56
2021/06/16 13:23:19;;;;;;;5.97;5.47;;;;;;;;;;5051392;28;20182;-56
2021/06/16 13:25:48;;;;;;;7.73;5.47;;;;;;;;;;5051971;28;20189;-57
2021/06/16 13:28:21;;;;;;;6.22;5.72;;;;;;;;;;5051818;28;20292;-58
2021/06/16 13:30:48;;;;;;;6.05;5.55;;;;;;;;;;5051208;28;20264;-57
2021/06/16 13:33:14;;;;;;;6.32;5.35;;;;;;;;;;5050477;28;20184;-58
2021/06/16 13:35:40;;;;;;;6.63;5.10;;;;;;;;;;5051474;28;20205;-56
2021/06/16 13:38:06;;;;;;;6.40;5.80;;;;;;;;;;5050392;28;20302;-57
2021/06/16 13:40:32;;;;;;;5.80;4.93;;;;;;;;;;5050767;28;20173;-57
2021/06/16 13:43:00;;;;;;;6.30;5.43;;;;;;;;;;5049272;28;20181;-58
2021/06/16 13:45:26;;;;;;;5.78;5.30;;;;;;;;;;5050724;28;20751;-57
2021/06/16 13:47:56;;;;;;;5.60;5.10;;;;;;;;;;5032468;28;20239;-56
2021/06/16 13:50:22;;;;;;;5.88;5.10;;;;;;;;;;5051884;28;20192;-57
2021/06/16 13:52:49;;;;;;;5.70;5.20;;;;;;;;;;5033335;28;20182;-56
2021/06/16 13:55:15;;;;;;;6.10;5.47;;;;;;;;;;5052027;28;20200;-56
2021/06/16 13:57:41;;;;;;;6.00;5.50;;;;;;;;;;5048323;28;20668;-56
2021/06/16 14:00:08;;;;;;;6.35;5.72;;;;;;;;;;5047963;28;20567;-57
2021/06/16 14:02:35;;;;;;;7.03;6.32;;;;;;;;;;5050206;28;20201;-59
2021/06/16 14:05:01;;;;;;;5.65;5.10;;;;;;;;;;5051905;28;20170;-58
2021/06/16 14:07:28;;;;;;;6.18;5.68;;;;;;;;;;5049136;28;20193;-58
2021/06/16 14:09:54;;;;;;;6.75;5.43;;;;;;;;;;5050643;28;20181;-57
2021/06/16 14:12:20;;;;;;;6.00;5.50;;;;;;;;;;5050202;28;20213;-58
2021/06/16 14:14:47;;;;;;;6.80;5.43;;;;;;;;;;5049874;28;20266;-57
2021/06/16 14:17:13;;;;;;;6.63;5.55;;;;;;;;;;5050729;28;20727;-59
2021/06/16 14:19:39;;;;;;;7.70;5.45;;;;;;;;;;5051151;28;20169;-58
2021/06/16 14:22:06;;;;;;;6.15;5.57;;;;;;;;;;5048944;28;20169;-57
2021/06/16 14:24:32;;;;;;;6.32;5.00;;;;;;;;;;5032763;28;20187;-56
2021/06/16 14:26:58;;;;;;;6.30;5.80;;;;;;;;;;5051488;28;20181;-56
2021/06/16 14:29:24;;;;;;;6.93;6.30;;;;;;;;;;5051924;28;20264;-56
2021/06/16 14:31:50;;;;;;;6.07;5.53;;;;;;;;;;5049421;28;20203;-56
2021/06/16 14:34:16;;;;;;;6.22;5.65;;;;;;;;;;5050756;28;20200;-57
2021/06/16 14:36:42;;;;;;;7.18;6.47;;;;;;;;;;5050438;28;20427;-60
2021/06/16 14:39:09;;;;;;;8.57;6.40;;;;;;;;;;5029868;28;20264;-58
2021/06/16 14:41:35;;;;;;;7.15;6.43;;;;;;;;;;5049942;28;20189;-61
2021/06/16 14:44:01;;;;;;;7.50;6.15;;;;;;;;;;5047746;28;20193;-59
2021/06/16 14:46:27;;;;;;;8.13;6.78;;;;;;;;;;5040842;28;20189;-58
2021/06/16 14:48:54;;;;;;;8.10;7.07;;;;;;;;;;5048754;28;20189;-57